Time;durP1;ratioP1;P1;durP2;ratioP2;P2;SDS_P1;SDS_P2;PMS_P1;PMS_P2;Temp;Humidity;BMP_temperature;BMP_pressure;BME280_temperature;BME280_humidity;BME280_pressure;Samples;Min_cycle;Max_cycle;Signal;HPM_P1;HPM_P2
2023/12/07 00:01:25;;;;;;;201.67;91.80;;;;;;;;;;4982144;28;20465;-41
2023/12/07 00:03:53;;;;;;;192.27;96.00;;;;;;;;;;4988005;28;20528;-40
2023/12/07 00:06:20;;;;;;;161.07;83.93;;;;;;;;;;4983684;28;21034;-40
2023/12/07 00:08:48;;;;;;;178.17;84.93;;;;;;;;;;4979570;28;20459;-37
2023/12/07 00:11:17;;;;;;;193.73;89.60;;;;;;;;;;4987548;28;20465;-38
2023/12/07 00:13:44;;;;;;;238.67;95.50;;;;;;;;;;4998296;28;20512;-40
2023/12/07 00:16:12;;;;;;;190.63;92.33;;;;;;;;;;5001151;28;20557;-38
2023/12/07 00:18:40;;;;;;;175.00;86.97;;;;;;;;;;4993092;28;20460;-38
2023/12/07 00:21:08;;;;;;;161.67;80.33;;;;;;;;;;4981289;28;20466;-38
2023/12/07 00:23:37;;;;;;;151.53;79.50;;;;;;;;;;4990003;28;20438;-39
2023/12/07 00:26:04;;;;;;;191.40;83.37;;;;;;;;;;4981254;28;20992;-37
2023/12/07 00:28:33;;;;;;;194.17;92.23;;;;;;;;;;4983084;28;20440;-39
2023/12/07 00:31:01;;;;;;;198.17;85.97;;;;;;;;;;4980461;28;21016;-38
2023/12/07 00:33:29;;;;;;;176.40;85.10;;;;;;;;;;4989408;28;20918;-39
2023/12/07 00:35:57;;;;;;;159.67;77.20;;;;;;;;;;4986173;28;20508;-38
2023/12/07 00:38:25;;;;;;;161.13;80.63;;;;;;;;;;4989698;28;20441;-38
2023/12/07 00:40:52;;;;;;;151.20;78.53;;;;;;;;;;4973623;28;20490;-38
2023/12/07 00:43:20;;;;;;;146.27;78.23;;;;;;;;;;4980383;28;20494;-41
2023/12/07 00:45:49;;;;;;;148.30;79.97;;;;;;;;;;4988815;28;20519;-38
2023/12/07 00:48:16;;;;;;;147.53;78.87;;;;;;;;;;4999424;28;20473;-37
2023/12/07 00:50:44;;;;;;;193.57;83.50;;;;;;;;;;4991792;28;20465;-41
2023/12/07 00:53:12;;;;;;;201.50;93.43;;;;;;;;;;4987431;28;20509;-40
2023/12/07 00:55:40;;;;;;;163.90;83.07;;;;;;;;;;4988895;28;20490;-39
2023/12/07 00:58:08;;;;;;;178.47;86.20;;;;;;;;;;4987986;28;20435;-39
2023/12/07 01:00:36;;;;;;;165.23;83.37;;;;;;;;;;4980308;28;20533;-37
2023/12/07 01:03:05;;;;;;;169.33;78.50;;;;;;;;;;4980096;28;20501;-39
2023/12/07 01:05:33;;;;;;;178.70;81.77;;;;;;;;;;4988092;28;20843;-39
2023/12/07 01:08:01;;;;;;;150.60;76.30;;;;;;;;;;4983256;28;20508;-38
2023/12/07 01:10:29;;;;;;;153.67;78.67;;;;;;;;;;4992103;28;20496;-39
2023/12/07 01:12:56;;;;;;;155.13;78.80;;;;;;;;;;4984090;28;20435;-40
2023/12/07 01:15:24;;;;;;;157.97;82.47;;;;;;;;;;4993525;28;20486;-39
2023/12/07 01:17:52;;;;;;;146.33;77.73;;;;;;;;;;4988438;28;20469;-38
2023/12/07 01:20:22;;;;;;;159.57;76.80;;;;;;;;;;4988168;28;20557;-38
2023/12/07 01:22:50;;;;;;;137.60;77.60;;;;;;;;;;4980735;28;20790;-40
2023/12/07 01:25:21;;;;;;;143.80;73.37;;;;;;;;;;4984496;28;20482;-37
2023/12/07 01:27:50;;;;;;;195.37;93.97;;;;;;;;;;4982638;28;20518;-38
2023/12/07 01:30:18;;;;;;;167.90;79.50;;;;;;;;;;4994471;28;20494;-40
2023/12/07 01:32:46;;;;;;;165.07;79.60;;;;;;;;;;5002521;28;21153;-42
2023/12/07 01:35:13;;;;;;;153.97;79.90;;;;;;;;;;5002317;28;20481;-40
2023/12/07 01:37:42;;;;;;;144.73;75.67;;;;;;;;;;4993649;28;20434;-40
2023/12/07 01:40:10;;;;;;;128.57;73.20;;;;;;;;;;4974704;28;20490;-38
2023/12/07 01:42:38;;;;;;;160.20;77.43;;;;;;;;;;4990511;28;20863;-40
2023/12/07 01:45:07;;;;;;;154.10;76.13;;;;;;;;;;4984796;28;20493;-43
2023/12/07 01:47:36;;;;;;;127.53;73.80;;;;;;;;;;4994171;28;20439;-40
2023/12/07 01:50:05;;;;;;;126.07;72.07;;;;;;;;;;4991305;28;21337;-39
2023/12/07 01:52:33;;;;;;;134.57;76.10;;;;;;;;;;4992767;28;20444;-39
2023/12/07 01:55:02;;;;;;;170.33;83.17;;;;;;;;;;5000269;28;20481;-41
2023/12/07 01:57:30;;;;;;;133.17;74.37;;;;;;;;;;4992728;28;20441;-41
2023/12/07 01:59:58;;;;;;;167.73;80.43;;;;;;;;;;4973938;28;20517;-38
2023/12/07 02:02:25;;;;;;;184.23;88.97;;;;;;;;;;4980755;28;20470;-38
2023/12/07 02:04:54;;;;;;;159.50;82.33;;;;;;;;;;4996714;28;20504;-37
2023/12/07 02:07:23;;;;;;;140.37;75.60;;;;;;;;;;4985917;28;20882;-39
2023/12/07 02:09:51;;;;;;;132.53;78.40;;;;;;;;;;4983439;28;20876;-40
2023/12/07 02:12:20;;;;;;;151.20;77.73;;;;;;;;;;4987400;28;20451;-38
2023/12/07 02:14:48;;;;;;;169.90;83.70;;;;;;;;;;4979515;28;20550;-37
2023/12/07 02:17:19;;;;;;;168.27;83.80;;;;;;;;;;4992014;28;20438;-37
2023/12/07 02:19:56;;;;;;;142.93;81.27;;;;;;;;;;4981938;28;20958;-39
2023/12/07 02:22:26;;;;;;;159.80;84.20;;;;;;;;;;4985146;28;20825;-38
2023/12/07 02:25:04;;;;;;;142.80;80.20;;;;;;;;;;4989853;28;20455;-39
2023/12/07 02:27:37;;;;;;;159.10;82.10;;;;;;;;;;4980484;28;20945;-37
2023/12/07 02:30:05;;;;;;;132.07;74.60;;;;;;;;;;4994898;28;20469;-37
2023/12/07 02:32:33;;;;;;;127.73;72.07;;;;;;;;;;4978978;28;21001;-38
2023/12/07 02:35:01;;;;;;;157.67;85.67;;;;;;;;;;4988187;28;21258;-39
2023/12/07 02:37:33;;;;;;;146.00;81.93;;;;;;;;;;4980316;28;20446;-37
2023/12/07 02:40:01;;;;;;;169.00;83.33;;;;;;;;;;4989475;28;20463;-41
2023/12/07 02:42:29;;;;;;;143.50;82.53;;;;;;;;;;4985740;28;20467;-37
2023/12/07 02:44:58;;;;;;;146.83;83.17;;;;;;;;;;4996239;28;20458;-44
2023/12/07 02:47:26;;;;;;;132.17;76.53;;;;;;;;;;4985943;28;20539;-40
2023/12/07 02:49:53;;;;;;;121.90;76.40;;;;;;;;;;4996039;28;20904;-37
2023/12/07 02:52:21;;;;;;;151.07;87.50;;;;;;;;;;4986399;28;20446;-38
2023/12/07 02:54:49;;;;;;;150.97;81.83;;;;;;;;;;4987438;28;20533;-38
2023/12/07 02:57:17;;;;;;;102.10;69.53;;;;;;;;;;4989981;28;20445;-39
2023/12/07 02:59:44;;;;;;;135.53;77.60;;;;;;;;;;4998215;28;20557;-39
2023/12/07 03:02:13;;;;;;;144.03;78.63;;;;;;;;;;4995035;28;21018;-43
2023/12/07 03:04:41;;;;;;;148.50;86.30;;;;;;;;;;4987018;28;20445;-38
2023/12/07 03:07:08;;;;;;;138.20;81.27;;;;;;;;;;4989561;28;20446;-38
2023/12/07 03:09:36;;;;;;;128.90;79.40;;;;;;;;;;4989494;28;20481;-39
2023/12/07 03:12:04;;;;;;;167.77;92.80;;;;;;;;;;4982436;28;20442;-40
2023/12/07 03:14:31;;;;;;;153.13;84.87;;;;;;;;;;4983635;28;20443;-38
2023/12/07 03:16:59;;;;;;;129.93;80.47;;;;;;;;;;4980071;28;20438;-39
2023/12/07 03:19:28;;;;;;;150.30;88.03;;;;;;;;;;4971831;28;20931;-38
2023/12/07 03:21:56;;;;;;;170.70;87.60;;;;;;;;;;4985971;28;20877;-40
2023/12/07 03:24:23;;;;;;;142.70;82.40;;;;;;;;;;4998357;28;20445;-39
2023/12/07 03:26:51;;;;;;;147.80;86.77;;;;;;;;;;4989218;28;20508;-38
2023/12/07 03:29:18;;;;;;;168.03;95.50;;;;;;;;;;4985605;28;20810;-38
2023/12/07 03:31:46;;;;;;;137.53;80.67;;;;;;;;;;4985859;28;20486;-38
2023/12/07 03:34:15;;;;;;;190.83;93.67;;;;;;;;;;4989055;28;20438;-39
2023/12/07 03:36:46;;;;;;;180.87;94.13;;;;;;;;;;4990585;28;20510;-40
2023/12/07 03:39:14;;;;;;;177.73;93.50;;;;;;;;;;4978159;28;20435;-39
2023/12/07 03:41:41;;;;;;;155.27;87.23;;;;;;;;;;4977050;28;20475;-38
2023/12/07 03:44:09;;;;;;;133.90;85.57;;;;;;;;;;4979597;28;20439;-39
2023/12/07 03:46:37;;;;;;;147.47;83.80;;;;;;;;;;4982891;28;20522;-37
2023/12/07 03:49:05;;;;;;;155.73;87.00;;;;;;;;;;4979895;28;20522;-40
2023/12/07 03:51:33;;;;;;;165.87;92.40;;;;;;;;;;4992603;28;20463;-38
2023/12/07 03:54:02;;;;;;;133.10;81.00;;;;;;;;;;4996939;28;20536;-41
2023/12/07 03:56:30;;;;;;;128.10;83.53;;;;;;;;;;4993597;28;20540;-42
2023/12/07 03:58:58;;;;;;;147.60;81.67;;;;;;;;;;4999262;28;20440;-38
2023/12/07 04:01:26;;;;;;;131.50;82.23;;;;;;;;;;4986673;28;20555;-42
2023/12/07 04:03:54;;;;;;;121.37;77.20;;;;;;;;;;4995357;28;20440;-38
2023/12/07 04:06:22;;;;;;;120.10;79.37;;;;;;;;;;4979723;28;20514;-41
2023/12/07 04:08:49;;;;;;;125.80;81.00;;;;;;;;;;4979104;28;20477;-42
2023/12/07 04:11:18;;;;;;;119.80;79.17;;;;;;;;;;4981385;28;20488;-38
2023/12/07 04:13:46;;;;;;;116.03;77.83;;;;;;;;;;4998134;28;20776;-39
2023/12/07 04:16:14;;;;;;;128.10;78.33;;;;;;;;;;4979288;28;20489;-39
2023/12/07 04:18:41;;;;;;;110.63;75.70;;;;;;;;;;4993318;28;20437;-37
2023/12/07 04:21:09;;;;;;;110.50;75.80;;;;;;;;;;4988193;28;20467;-43
2023/12/07 04:23:37;;;;;;;105.53;72.77;;;;;;;;;;4992358;28;20443;-39
2023/12/07 04:26:05;;;;;;;115.47;77.80;;;;;;;;;;4978138;28;20465;-38
2023/12/07 04:28:34;;;;;;;121.43;74.40;;;;;;;;;;4983415;28;20477;-38
2023/12/07 04:31:02;;;;;;;107.40;74.43;;;;;;;;;;4981331;28;20477;-39
2023/12/07 04:33:29;;;;;;;115.23;76.63;;;;;;;;;;4992158;28;20441;-38
2023/12/07 04:35:57;;;;;;;112.97;74.50;;;;;;;;;;4977828;28;20523;-39
2023/12/07 04:38:25;;;;;;;108.00;75.30;;;;;;;;;;4986665;28;20470;-38
2023/12/07 04:40:53;;;;;;;109.20;77.17;;;;;;;;;;4984633;28;20881;-41
2023/12/07 04:43:20;;;;;;;98.97;72.53;;;;;;;;;;4976918;28;20443;-40
2023/12/07 04:45:49;;;;;;;110.23;74.80;;;;;;;;;;4993316;28;20585;-41
2023/12/07 04:48:17;;;;;;;123.10;80.73;;;;;;;;;;4993702;28;20494;-39
2023/12/07 04:50:45;;;;;;;101.77;71.57;;;;;;;;;;4991762;28;20825;-39
2023/12/07 04:53:12;;;;;;;107.93;69.70;;;;;;;;;;4970439;28;20462;-39
2023/12/07 04:55:40;;;;;;;118.57;76.30;;;;;;;;;;4984976;28;20501;-43
2023/12/07 04:58:08;;;;;;;116.83;74.23;;;;;;;;;;4998391;28;20453;-38
2023/12/07 05:00:35;;;;;;;118.20;71.93;;;;;;;;;;4987663;28;20470;-40
2023/12/07 05:03:04;;;;;;;111.53;76.50;;;;;;;;;;4981189;28;20485;-39
2023/12/07 05:05:32;;;;;;;115.60;72.57;;;;;;;;;;4989185;28;20470;-43
2023/12/07 05:07:59;;;;;;;120.73;77.10;;;;;;;;;;4984181;28;20513;-38
2023/12/07 05:10:27;;;;;;;111.70;75.07;;;;;;;;;;4994151;28;20469;-40
2023/12/07 05:12:56;;;;;;;131.60;80.77;;;;;;;;;;4994408;28;20660;-39
2023/12/07 05:15:24;;;;;;;111.43;71.90;;;;;;;;;;4983545;28;20527;-38
2023/12/07 05:17:52;;;;;;;113.13;71.80;;;;;;;;;;4982609;28;20441;-38
2023/12/07 05:20:24;;;;;;;119.30;76.37;;;;;;;;;;4981952;28;20467;-42
2023/12/07 05:22:51;;;;;;;112.23;73.30;;;;;;;;;;4989896;28;20465;-44
2023/12/07 05:25:19;;;;;;;96.83;69.60;;;;;;;;;;4989950;28;20467;-40
2023/12/07 05:27:47;;;;;;;113.87;75.00;;;;;;;;;;4988396;28;20426;-43
2023/12/07 05:30:15;;;;;;;118.57;78.60;;;;;;;;;;4984667;28;20467;-40
2023/12/07 05:32:42;;;;;;;112.37;78.03;;;;;;;;;;5001710;28;20484;-39
2023/12/07 05:35:10;;;;;;;107.57;75.17;;;;;;;;;;4991169;28;20458;-38
2023/12/07 05:37:39;;;;;;;111.13;77.00;;;;;;;;;;4981669;28;20529;-38
2023/12/07 05:40:08;;;;;;;123.47;78.27;;;;;;;;;;4989233;28;20496;-40
2023/12/07 05:42:35;;;;;;;126.33;81.40;;;;;;;;;;4994671;28;20438;-40
2023/12/07 05:45:03;;;;;;;95.13;69.67;;;;;;;;;;4975768;28;20482;-39
2023/12/07 05:47:30;;;;;;;105.27;72.50;;;;;;;;;;4988791;28;20435;-37
2023/12/07 05:49:59;;;;;;;115.20;74.17;;;;;;;;;;4988257;28;20865;-43
2023/12/07 05:52:27;;;;;;;140.43;85.77;;;;;;;;;;4981332;28;20440;-39
2023/12/07 05:54:57;;;;;;;134.17;78.47;;;;;;;;;;4988106;28;20446;-40
2023/12/07 05:57:25;;;;;;;151.63;86.00;;;;;;;;;;4999691;28;20565;-41
2023/12/07 05:59:52;;;;;;;134.33;82.30;;;;;;;;;;4991119;28;20530;-40
2023/12/07 06:02:20;;;;;;;154.00;88.90;;;;;;;;;;4988003;28;20446;-38
2023/12/07 06:04:47;;;;;;;139.43;85.67;;;;;;;;;;4986958;28;20438;-43
2023/12/07 06:07:15;;;;;;;117.10;75.23;;;;;;;;;;4980737;28;20435;-39
2023/12/07 06:09:43;;;;;;;141.50;84.80;;;;;;;;;;4979774;28;20446;-37
2023/12/07 06:12:12;;;;;;;134.87;81.93;;;;;;;;;;4988113;28;20434;-40
2023/12/07 06:14:40;;;;;;;136.27;78.10;;;;;;;;;;4993324;28;20465;-43
2023/12/07 06:17:08;;;;;;;143.37;82.27;;;;;;;;;;4983286;28;20504;-41
2023/12/07 06:19:36;;;;;;;160.23;87.77;;;;;;;;;;4983409;28;20506;-38
2023/12/07 06:22:03;;;;;;;143.37;83.87;;;;;;;;;;4980936;28;20439;-40
2023/12/07 06:24:32;;;;;;;148.03;84.20;;;;;;;;;;4985273;28;20441;-41
2023/12/07 06:27:01;;;;;;;140.80;82.00;;;;;;;;;;4992735;28;20795;-40
2023/12/07 06:29:30;;;;;;;153.93;82.60;;;;;;;;;;4980699;28;20447;-41
2023/12/07 06:31:58;;;;;;;148.37;83.17;;;;;;;;;;4988005;28;20855;-38
2023/12/07 06:34:25;;;;;;;145.50;81.43;;;;;;;;;;4991646;28;20462;-38
2023/12/07 06:36:53;;;;;;;140.10;81.17;;;;;;;;;;4999730;28;20570;-40
2023/12/07 06:39:21;;;;;;;134.17;84.30;;;;;;;;;;4983171;28;20524;-39
2023/12/07 06:41:48;;;;;;;144.50;85.00;;;;;;;;;;4998917;28;20466;-37
2023/12/07 06:44:16;;;;;;;154.33;87.10;;;;;;;;;;4983126;28;20435;-37
2023/12/07 06:46:45;;;;;;;123.77;77.10;;;;;;;;;;4984972;28;20517;-38
2023/12/07 06:49:13;;;;;;;133.10;83.50;;;;;;;;;;4980817;28;20447;-38
2023/12/07 06:51:41;;;;;;;127.13;82.47;;;;;;;;;;4985525;28;20470;-37
2023/12/07 06:54:08;;;;;;;124.90;75.80;;;;;;;;;;4987034;28;20438;-40
2023/12/07 06:56:36;;;;;;;128.77;77.00;;;;;;;;;;4987643;28;20922;-38
2023/12/07 06:59:03;;;;;;;127.37;81.17;;;;;;;;;;4988209;28;20438;-38
2023/12/07 07:01:31;;;;;;;110.60;75.87;;;;;;;;;;4989842;28;20466;-39
2023/12/07 07:04:02;;;;;;;113.53;74.73;;;;;;;;;;4998095;28;20473;-40
2023/12/07 07:06:29;;;;;;;128.57;72.97;;;;;;;;;;4971444;28;20471;-37
2023/12/07 07:08:57;;;;;;;125.70;79.63;;;;;;;;;;4994254;28;20438;-37
2023/12/07 07:11:28;;;;;;;134.37;81.10;;;;;;;;;;4989664;28;20462;-39
2023/12/07 07:13:56;;;;;;;142.07;84.60;;;;;;;;;;4983108;28;20922;-40
2023/12/07 07:16:24;;;;;;;122.53;80.60;;;;;;;;;;4986062;28;20458;-38
2023/12/07 07:18:52;;;;;;;131.87;80.80;;;;;;;;;;4986581;28;20442;-39
2023/12/07 07:21:21;;;;;;;136.87;85.20;;;;;;;;;;4975348;28;20467;-39
2023/12/07 07:23:49;;;;;;;129.73;77.70;;;;;;;;;;4987375;28;20467;-37
2023/12/07 07:26:17;;;;;;;113.43;79.60;;;;;;;;;;4979384;28;20514;-40
2023/12/07 07:28:45;;;;;;;139.53;81.47;;;;;;;;;;4985030;28;20435;-39
2023/12/07 07:31:13;;;;;;;110.47;71.90;;;;;;;;;;4985741;28;20506;-37
2023/12/07 07:33:40;;;;;;;126.93;80.50;;;;;;;;;;4991136;28;20438;-37
2023/12/07 07:36:09;;;;;;;126.63;76.13;;;;;;;;;;4980835;28;20454;-38
2023/12/07 07:38:38;;;;;;;118.87;78.70;;;;;;;;;;4988605;28;20553;-40
2023/12/07 07:41:05;;;;;;;125.47;79.30;;;;;;;;;;4988474;28;20490;-39
2023/12/07 07:43:34;;;;;;;117.73;80.17;;;;;;;;;;4996294;28;20465;-41
2023/12/07 07:46:01;;;;;;;110.77;72.57;;;;;;;;;;4988160;28;20458;-39
2023/12/07 07:48:29;;;;;;;114.23;76.37;;;;;;;;;;4980489;28;20435;-37
2023/12/07 07:50:57;;;;;;;127.93;76.47;;;;;;;;;;4973274;28;20471;-38
2023/12/07 07:53:25;;;;;;;104.83;68.70;;;;;;;;;;4983305;28;20515;-40
2023/12/07 07:55:54;;;;;;;110.43;74.27;;;;;;;;;;4983509;28;20472;-38
2023/12/07 07:58:22;;;;;;;123.50;73.00;;;;;;;;;;4994565;28;20569;-38
2023/12/07 08:00:50;;;;;;;108.07;73.87;;;;;;;;;;4982919;28;20458;-37
2023/12/07 08:03:18;;;;;;;126.73;82.50;;;;;;;;;;4986458;28;20439;-37
2023/12/07 08:05:45;;;;;;;121.20;77.13;;;;;;;;;;4977167;28;20469;-38
2023/12/07 08:08:13;;;;;;;109.47;70.07;;;;;;;;;;4977988;28;20526;-37
2023/12/07 08:10:41;;;;;;;129.63;74.43;;;;;;;;;;4977092;28;20497;-38
2023/12/07 08:13:24;;;;;;;115.43;77.67;;;;;;;;;;4987735;28;20441;-40
2023/12/07 08:15:52;;;;;;;111.50;71.93;;;;;;;;;;4982433;28;20455;-38
2023/12/07 08:18:23;;;;;;;107.03;70.70;;;;;;;;;;4995825;28;20461;-37
2023/12/07 08:20:51;;;;;;;113.60;75.77;;;;;;;;;;4987490;28;20470;-38
2023/12/07 08:23:18;;;;;;;120.87;70.40;;;;;;;;;;4979108;28;20802;-39
2023/12/07 08:25:47;;;;;;;118.17;76.43;;;;;;;;;;4978525;28;20490;-38
2023/12/07 08:28:16;;;;;;;110.10;71.80;;;;;;;;;;4988625;28;20438;-38
2023/12/07 08:30:45;;;;;;;114.33;72.20;;;;;;;;;;4981713;28;20459;-39
2023/12/07 08:33:12;;;;;;;100.63;68.57;;;;;;;;;;4976963;28;20439;-40
2023/12/07 08:35:41;;;;;;;99.33;71.07;;;;;;;;;;4982912;28;20536;-37
2023/12/07 08:38:08;;;;;;;103.33;71.53;;;;;;;;;;4976030;28;20529;-38
2023/12/07 08:40:36;;;;;;;104.53;67.13;;;;;;;;;;4979334;28;20501;-41
2023/12/07 08:43:05;;;;;;;123.17;79.80;;;;;;;;;;4980074;28;20446;-41
2023/12/07 08:45:32;;;;;;;107.60;72.77;;;;;;;;;;4983614;28;20477;-39
2023/12/07 08:48:01;;;;;;;126.63;76.07;;;;;;;;;;4975751;28;20431;-41
2023/12/07 08:50:29;;;;;;;109.13;73.13;;;;;;;;;;4975332;28;20501;-39
2023/12/07 08:52:57;;;;;;;114.57;75.93;;;;;;;;;;4975652;28;20474;-44
2023/12/07 08:55:31;;;;;;;112.40;76.00;;;;;;;;;;4978599;28;20512;-44
2023/12/07 08:58:00;;;;;;;111.13;74.17;;;;;;;;;;4987216;28;20478;-44
2023/12/07 09:00:28;;;;;;;104.67;72.50;;;;;;;;;;4975804;28;20463;-39
2023/12/07 09:02:55;;;;;;;112.83;70.50;;;;;;;;;;4975758;28;20577;-38
2023/12/07 09:05:24;;;;;;;101.07;72.27;;;;;;;;;;4975372;28;20495;-39
2023/12/07 09:07:52;;;;;;;116.87;74.03;;;;;;;;;;4975716;28;20852;-39
2023/12/07 09:10:20;;;;;;;111.80;73.27;;;;;;;;;;4974871;28;20498;-41
2023/12/07 09:12:48;;;;;;;92.63;69.20;;;;;;;;;;4975395;28;20527;-41
2023/12/07 09:15:16;;;;;;;116.43;72.40;;;;;;;;;;4975271;28;20913;-39
2023/12/07 09:17:43;;;;;;;104.57;70.53;;;;;;;;;;4975526;28;20445;-41
2023/12/07 09:20:12;;;;;;;100.23;70.80;;;;;;;;;;4987526;28;20471;-41
2023/12/07 09:22:43;;;;;;;96.17;71.23;;;;;;;;;;4980627;28;20449;-41
2023/12/07 09:25:11;;;;;;;100.90;68.97;;;;;;;;;;4986142;28;20459;-38
2023/12/07 09:27:38;;;;;;;97.50;68.20;;;;;;;;;;4983161;28;20434;-42
2023/12/07 09:30:07;;;;;;;100.67;69.77;;;;;;;;;;4982409;28;20468;-39
2023/12/07 09:32:38;;;;;;;98.63;67.27;;;;;;;;;;4975467;28;20439;-39
2023/12/07 09:35:06;;;;;;;109.40;71.07;;;;;;;;;;4983049;28;20459;-40
2023/12/07 09:37:34;;;;;;;118.43;73.00;;;;;;;;;;4975481;28;20862;-40
2023/12/07 09:40:05;;;;;;;100.60;69.73;;;;;;;;;;4982451;28;20463;-40
2023/12/07 09:42:33;;;;;;;127.77;77.23;;;;;;;;;;4975280;28;20431;-39
2023/12/07 09:45:04;;;;;;;117.80;77.30;;;;;;;;;;4974792;28;20459;-39
2023/12/07 09:47:34;;;;;;;96.93;71.07;;;;;;;;;;4982896;28;20806;-40
2023/12/07 09:50:05;;;;;;;107.07;74.73;;;;;;;;;;4974461;28;20471;-40
2023/12/07 09:52:33;;;;;;;106.33;71.10;;;;;;;;;;4974603;28;20434;-43
2023/12/07 09:55:02;;;;;;;88.50;65.80;;;;;;;;;;4974563;28;20529;-39
2023/12/07 09:57:32;;;;;;;102.47;73.93;;;;;;;;;;4982745;28;20442;-39
2023/12/07 10:00:00;;;;;;;102.40;72.97;;;;;;;;;;4974253;28;20471;-39
2023/12/07 10:02:28;;;;;;;94.07;69.60;;;;;;;;;;4974488;28;20435;-39
2023/12/07 10:05:05;;;;;;;97.83;69.80;;;;;;;;;;4973969;28;20549;-40
2023/12/07 10:07:34;;;;;;;100.27;70.63;;;;;;;;;;4982752;28;20964;-40
2023/12/07 10:10:03;;;;;;;99.57;66.47;;;;;;;;;;4974192;28;20470;-38
2023/12/07 10:12:33;;;;;;;92.17;67.57;;;;;;;;;;4982490;28;20476;-39
2023/12/07 10:15:02;;;;;;;93.10;68.30;;;;;;;;;;4988320;28;20458;-40
2023/12/07 10:17:44;;;;;;;107.47;71.20;;;;;;;;;;4991284;28;20775;-41
2023/12/07 10:20:12;;;;;;;101.70;72.73;;;;;;;;;;4981822;28;20480;-42
2023/12/07 10:22:41;;;;;;;109.43;71.50;;;;;;;;;;4977964;28;20444;-38
2023/12/07 10:25:10;;;;;;;101.60;68.50;;;;;;;;;;4978218;28;20459;-41
2023/12/07 10:27:40;;;;;;;105.73;69.50;;;;;;;;;;4977226;28;20437;-38
2023/12/07 10:30:10;;;;;;;93.67;67.73;;;;;;;;;;4985643;28;20463;-40
2023/12/07 10:32:38;;;;;;;98.60;70.47;;;;;;;;;;4974157;28;20435;-39
2023/12/07 10:35:07;;;;;;;90.10;64.20;;;;;;;;;;4973816;28;20458;-39
2023/12/07 10:37:35;;;;;;;108.00;72.07;;;;;;;;;;4974035;28;20470;-38
2023/12/07 10:40:03;;;;;;;94.63;67.90;;;;;;;;;;4981585;28;20458;-39
2023/12/07 10:42:33;;;;;;;104.13;69.23;;;;;;;;;;4973851;28;20446;-39
2023/12/07 10:45:04;;;;;;;86.77;63.97;;;;;;;;;;4973832;28;20873;-39
2023/12/07 10:47:33;;;;;;;91.10;65.27;;;;;;;;;;4973739;28;20514;-39
2023/12/07 10:50:01;;;;;;;89.53;67.17;;;;;;;;;;4979651;28;20804;-38
2023/12/07 10:52:32;;;;;;;103.73;73.27;;;;;;;;;;4976700;28;20970;-39
2023/12/07 10:55:03;;;;;;;103.37;71.93;;;;;;;;;;4984543;28;20552;-39
2023/12/07 10:57:31;;;;;;;90.60;69.20;;;;;;;;;;4977084;28;20843;-40
2023/12/07 11:00:00;;;;;;;100.60;68.90;;;;;;;;;;4978643;28;20877;-38
2023/12/07 11:02:30;;;;;;;99.27;71.17;;;;;;;;;;4973474;28;20463;-39
2023/12/07 11:04:59;;;;;;;93.43;67.87;;;;;;;;;;4973044;28;20471;-39
2023/12/07 11:07:29;;;;;;;86.30;63.83;;;;;;;;;;4974722;28;20795;-39
2023/12/07 11:09:59;;;;;;;98.73;71.47;;;;;;;;;;4984227;28;20520;-39
2023/12/07 11:12:30;;;;;;;96.37;70.63;;;;;;;;;;4974855;28;20450;-38
2023/12/07 11:14:58;;;;;;;94.33;65.37;;;;;;;;;;4978515;28;20457;-39
2023/12/07 11:17:27;;;;;;;97.90;68.60;;;;;;;;;;4975246;28;20505;-39
2023/12/07 11:19:57;;;;;;;107.87;71.67;;;;;;;;;;4972352;28;20514;-42
2023/12/07 11:22:26;;;;;;;98.50;64.10;;;;;;;;;;4972997;28;20474;-39
2023/12/07 11:24:55;;;;;;;108.20;70.40;;;;;;;;;;4972994;28;20537;-40
2023/12/07 11:27:22;;;;;;;108.63;76.10;;;;;;;;;;4973067;28;20443;-41
2023/12/07 11:29:51;;;;;;;117.17;72.77;;;;;;;;;;4972338;28;20458;-39
2023/12/07 11:32:19;;;;;;;101.90;70.83;;;;;;;;;;4973001;28;20443;-39
2023/12/07 11:35:00;;;;;;;112.43;70.27;;;;;;;;;;4972936;28;20455;-39
2023/12/07 11:37:48;;;;;;;96.60;69.23;;;;;;;;;;4973108;28;20439;-40
2023/12/07 11:40:15;;;;;;;114.43;72.53;;;;;;;;;;4972268;28;20887;-40
2023/12/07 11:42:44;;;;;;;102.33;74.63;;;;;;;;;;4972871;28;20447;-39
2023/12/07 11:45:12;;;;;;;91.50;66.73;;;;;;;;;;4979604;28;20457;-39
2023/12/07 11:47:40;;;;;;;96.43;65.93;;;;;;;;;;4973193;28;20493;-42
2023/12/07 11:50:09;;;;;;;89.07;65.27;;;;;;;;;;4972103;28;20831;-38
2023/12/07 11:52:37;;;;;;;104.10;70.90;;;;;;;;;;4972592;28;20444;-38
2023/12/07 11:55:05;;;;;;;107.00;70.57;;;;;;;;;;4972501;28;20819;-39
2023/12/07 11:57:33;;;;;;;97.37;66.30;;;;;;;;;;4972555;28;20435;-39
2023/12/07 12:00:01;;;;;;;92.33;66.70;;;;;;;;;;4972339;28;20930;-38
2023/12/07 12:02:28;;;;;;;101.80;68.83;;;;;;;;;;4980285;28;20438;-39
2023/12/07 12:04:56;;;;;;;92.90;67.23;;;;;;;;;;4971303;28;20477;-39
2023/12/07 12:07:26;;;;;;;92.73;67.87;;;;;;;;;;4980494;28;20927;-38
2023/12/07 12:09:54;;;;;;;99.10;70.97;;;;;;;;;;4971778;28;20463;-39
2023/12/07 12:12:21;;;;;;;94.93;68.47;;;;;;;;;;4972502;28;20453;-38
2023/12/07 12:14:49;;;;;;;105.90;72.33;;;;;;;;;;4972165;28;20477;-38
2023/12/07 12:17:17;;;;;;;100.63;67.57;;;;;;;;;;4972396;28;20439;-39
2023/12/07 12:19:45;;;;;;;100.43;69.43;;;;;;;;;;4971941;28;20558;-43
2023/12/07 12:22:12;;;;;;;100.53;69.87;;;;;;;;;;4972343;28;20434;-40
2023/12/07 12:24:42;;;;;;;96.33;65.37;;;;;;;;;;4971821;28;20439;-41
2023/12/07 12:27:09;;;;;;;97.93;72.40;;;;;;;;;;4972508;28;20431;-40
2023/12/07 12:29:37;;;;;;;94.53;66.40;;;;;;;;;;4971580;28;20435;-43
2023/12/07 12:32:05;;;;;;;94.53;63.33;;;;;;;;;;4971348;28;20941;-43
2023/12/07 12:34:33;;;;;;;88.50;65.33;;;;;;;;;;4971716;28;20517;-40
2023/12/07 12:37:05;;;;;;;94.57;65.73;;;;;;;;;;4971842;28;20804;-39
2023/12/07 12:39:33;;;;;;;104.63;67.23;;;;;;;;;;4971864;28;20497;-43
2023/12/07 12:42:04;;;;;;;96.73;66.90;;;;;;;;;;4971901;28;20449;-42
2023/12/07 12:44:32;;;;;;;81.00;55.43;;;;;;;;;;4971787;28;21002;-40
2023/12/07 12:47:05;;;;;;;71.50;56.47;;;;;;;;;;4972047;28;20449;-40
2023/12/07 12:49:37;;;;;;;99.53;65.93;;;;;;;;;;4971472;28;20475;-39
2023/12/07 12:52:05;;;;;;;93.67;61.60;;;;;;;;;;4972333;28;20466;-40
2023/12/07 12:54:33;;;;;;;95.17;63.50;;;;;;;;;;4971969;28;20517;-40
2023/12/07 12:57:00;;;;;;;92.93;63.93;;;;;;;;;;4980378;28;20811;-39
2023/12/07 12:59:30;;;;;;;76.80;58.93;;;;;;;;;;4979516;28;20438;-40
2023/12/07 13:01:57;;;;;;;79.33;60.13;;;;;;;;;;4971943;28;20439;-39
2023/12/07 13:04:25;;;;;;;78.90;55.23;;;;;;;;;;4971702;28;20450;-45
2023/12/07 13:06:53;;;;;;;73.93;56.97;;;;;;;;;;4971900;28;20462;-43
2023/12/07 13:09:21;;;;;;;69.20;52.47;;;;;;;;;;4971603;28;20633;-39
2023/12/07 13:11:48;;;;;;;60.97;50.27;;;;;;;;;;4979351;28;20489;-41
2023/12/07 13:14:17;;;;;;;58.50;50.20;;;;;;;;;;4971768;28;20450;-40
2023/12/07 13:16:47;;;;;;;61.70;50.47;;;;;;;;;;4981308;28;20447;-39
2023/12/07 13:19:16;;;;;;;54.17;47.47;;;;;;;;;;4975754;28;20438;-41
2023/12/07 13:21:44;;;;;;;53.27;46.77;;;;;;;;;;4974599;28;20478;-40
2023/12/07 13:24:12;;;;;;;54.73;45.33;;;;;;;;;;4974996;28;20443;-39
2023/12/07 13:26:40;;;;;;;50.90;44.47;;;;;;;;;;4975158;28;20899;-39
2023/12/07 13:29:08;;;;;;;49.87;44.27;;;;;;;;;;4974940;28;20467;-38
2023/12/07 13:31:46;;;;;;;54.30;45.90;;;;;;;;;;4982580;28;20469;-40
2023/12/07 13:34:15;;;;;;;48.43;43.53;;;;;;;;;;4983110;28;20439;-41
2023/12/07 13:36:50;;;;;;;47.20;42.37;;;;;;;;;;4975554;28;20446;-45
2023/12/07 13:39:20;;;;;;;45.13;40.43;;;;;;;;;;4974881;28;20502;-38
2023/12/07 13:41:57;;;;;;;44.07;39.77;;;;;;;;;;4981037;28;20479;-45
2023/12/07 13:44:27;;;;;;;47.97;43.20;;;;;;;;;;4974641;28;20526;-40
2023/12/07 13:46:56;;;;;;;46.90;42.30;;;;;;;;;;4974799;28;20961;-38
2023/12/07 13:49:26;;;;;;;47.87;43.10;;;;;;;;;;4974719;28;20533;-42
2023/12/07 13:52:01;;;;;;;46.87;42.03;;;;;;;;;;4974559;28;20470;-40
2023/12/07 13:54:35;;;;;;;45.90;41.33;;;;;;;;;;4990775;28;20445;-42
2023/12/07 13:57:20;;;;;;;47.07;42.03;;;;;;;;;;4974796;28;20534;-40
2023/12/07 13:59:47;;;;;;;54.30;46.77;;;;;;;;;;4974082;28;20461;-38
2023/12/07 14:02:15;;;;;;;47.20;42.37;;;;;;;;;;4981075;28;20503;-42
2023/12/07 14:04:44;;;;;;;48.07;43.10;;;;;;;;;;4975072;28;20439;-41
2023/12/07 14:07:12;;;;;;;52.67;47.10;;;;;;;;;;4974723;28;20867;-40
2023/12/07 14:09:41;;;;;;;51.10;45.60;;;;;;;;;;4973254;28;20815;-42
2023/12/07 14:12:23;;;;;;;49.80;42.57;;;;;;;;;;4974367;28;20946;-42
2023/12/07 14:14:51;;;;;;;49.43;44.13;;;;;;;;;;4973923;28;20439;-39
2023/12/07 14:17:19;;;;;;;46.63;41.50;;;;;;;;;;4974391;28;20439;-40